Khorramabad, Iran
Current Conditions -  °F | °C
As of 11:00 AM on Monday 20 Oct 2014 (Local Time) from OICK Reporting Station
Broken Clouds Broken Clouds  
Wind Chill: 70°   Ceiling: 9000
Heat Index: 70°   Visibility: 6mi
Dew Point: 48°   Wind: 7mph
Humidity: 46%   Direction: 60°ENE
Pressure: 30"   Gusts: NA
Location:  33.47°N, 48.35°E
Report Text: OICK 200800Z 06006KT 9999 FEW035CB SCT040 BKN090 21/09 Q1016
Loading
Personal Weather Stations






























Interactive Weather Map New forecast layout! Learn more

10-Day Weather Forecast

Advertisements
Track Severe Weather on mobile